sensor_id;sensor_type;location;lat;lon;timestamp;P1;durP1;ratioP1;P2;durP2;ratioP2
19127;SDS011;9696;53.686;10.094;2023-04-09T00:00:10;88.63;;;28.27;;
19127;SDS011;9696;53.686;10.094;2023-04-09T00:02:41;86.83;;;29.67;;
19127;SDS011;9696;53.686;10.094;2023-04-09T00:05:11;89.80;;;29.53;;
19127;SDS011;9696;53.686;10.094;2023-04-09T00:07:41;84.57;;;29.33;;
19127;SDS011;9696;53.686;10.094;2023-04-09T00:10:10;73.37;;;28.80;;
19127;SDS011;9696;53.686;10.094;2023-04-09T00:12:39;63.13;;;23.37;;
19127;SDS011;9696;53.686;10.094;2023-04-09T00:15:09;69.07;;;24.30;;
19127;SDS011;9696;53.686;10.094;2023-04-09T00:17:55;66.97;;;24.93;;
19127;SDS011;9696;53.686;10.094;2023-04-09T00:20:24;61.23;;;23.33;;
19127;SDS011;9696;53.686;10.094;2023-04-09T00:22:53;72.23;;;23.83;;
19127;SDS011;9696;53.686;10.094;2023-04-09T00:25:24;69.30;;;22.57;;
19127;SDS011;9696;53.686;10.094;2023-04-09T00:27:54;62.80;;;22.67;;
19127;SDS011;9696;53.686;10.094;2023-04-09T00:30:23;57.77;;;20.93;;
19127;SDS011;9696;53.686;10.094;2023-04-09T00:32:52;56.87;;;20.33;;
19127;SDS011;9696;53.686;10.094;2023-04-09T00:35:23;61.30;;;22.57;;
19127;SDS011;9696;53.686;10.094;2023-04-09T00:37:52;57.10;;;20.23;;
19127;SDS011;9696;53.686;10.094;2023-04-09T00:40:21;65.33;;;21.00;;
19127;SDS011;9696;53.686;10.094;2023-04-09T00:42:50;64.47;;;21.90;;
19127;SDS011;9696;53.686;10.094;2023-04-09T00:45:20;58.00;;;23.47;;
19127;SDS011;9696;53.686;10.094;2023-04-09T00:47:49;57.83;;;22.13;;
19127;SDS011;9696;53.686;10.094;2023-04-09T00:50:20;61.93;;;21.70;;
19127;SDS011;9696;53.686;10.094;2023-04-09T00:52:49;59.77;;;22.70;;
19127;SDS011;9696;53.686;10.094;2023-04-09T00:55:18;68.77;;;22.60;;
19127;SDS011;9696;53.686;10.094;2023-04-09T00:57:49;70.17;;;24.70;;
19127;SDS011;9696;53.686;10.094;2023-04-09T01:00:18;93.80;;;34.13;;
19127;SDS011;9696;53.686;10.094;2023-04-09T01:02:47;77.47;;;25.03;;
19127;SDS011;9696;53.686;10.094;2023-04-09T01:05:17;67.97;;;24.03;;
19127;SDS011;9696;53.686;10.094;2023-04-09T01:07:52;61.77;;;21.97;;
19127;SDS011;9696;53.686;10.094;2023-04-09T01:10:29;62.20;;;22.30;;
19127;SDS011;9696;53.686;10.094;2023-04-09T01:13:06;75.30;;;25.07;;
19127;SDS011;9696;53.686;10.094;2023-04-09T01:15:42;84.63;;;30.47;;
19127;SDS011;9696;53.686;10.094;2023-04-09T01:18:18;99.63;;;37.90;;
19127;SDS011;9696;53.686;10.094;2023-04-09T01:20:55;88.13;;;34.80;;
19127;SDS011;9696;53.686;10.094;2023-04-09T01:23:28;109.87;;;40.30;;
19127;SDS011;9696;53.686;10.094;2023-04-09T01:26:06;110.87;;;34.23;;
19127;SDS011;9696;53.686;10.094;2023-04-09T01:28:51;93.87;;;29.90;;
19127;SDS011;9696;53.686;10.094;2023-04-09T01:31:24;78.53;;;27.60;;
19127;SDS011;9696;53.686;10.094;2023-04-09T01:33:56;73.67;;;25.63;;
19127;SDS011;9696;53.686;10.094;2023-04-09T01:36:27;69.93;;;24.97;;
19127;SDS011;9696;53.686;10.094;2023-04-09T01:38:59;78.73;;;26.03;;
19127;SDS011;9696;53.686;10.094;2023-04-09T01:41:30;83.70;;;27.57;;
19127;SDS011;9696;53.686;10.094;2023-04-09T01:44:02;89.70;;;28.90;;
19127;SDS011;9696;53.686;10.094;2023-04-09T01:46:34;96.70;;;30.80;;
19127;SDS011;9696;53.686;10.094;2023-04-09T01:49:06;94.43;;;30.50;;
19127;SDS011;9696;53.686;10.094;2023-04-09T01:51:36;85.53;;;31.73;;
19127;SDS011;9696;53.686;10.094;2023-04-09T01:54:05;102.10;;;33.03;;
19127;SDS011;9696;53.686;10.094;2023-04-09T01:56:41;136.63;;;45.53;;
19127;SDS011;9696;53.686;10.094;2023-04-09T01:59:13;144.07;;;45.63;;
19127;SDS011;9696;53.686;10.094;2023-04-09T02:01:43;138.17;;;43.37;;
19127;SDS011;9696;53.686;10.094;2023-04-09T02:04:15;145.83;;;45.60;;
19127;SDS011;9696;53.686;10.094;2023-04-09T02:06:52;115.83;;;36.00;;
19127;SDS011;9696;53.686;10.094;2023-04-09T02:09:26;127.70;;;37.47;;
19127;SDS011;9696;53.686;10.094;2023-04-09T02:11:58;119.60;;;38.80;;
19127;SDS011;9696;53.686;10.094;2023-04-09T02:14:33;125.23;;;37.23;;
19127;SDS011;9696;53.686;10.094;2023-04-09T02:17:04;89.03;;;30.33;;
19127;SDS011;9696;53.686;10.094;2023-04-09T02:19:37;95.00;;;30.37;;
19127;SDS011;9696;53.686;10.094;2023-04-09T02:22:07;86.73;;;26.80;;
19127;SDS011;9696;53.686;10.094;2023-04-09T02:24:36;74.83;;;25.73;;
19127;SDS011;9696;53.686;10.094;2023-04-09T02:27:06;82.97;;;26.40;;
19127;SDS011;9696;53.686;10.094;2023-04-09T02:29:38;104.63;;;27.80;;
19127;SDS011;9696;53.686;10.094;2023-04-09T02:32:07;98.07;;;27.17;;
19127;SDS011;9696;53.686;10.094;2023-04-09T02:34:37;84.87;;;27.93;;
19127;SDS011;9696;53.686;10.094;2023-04-09T02:37:06;85.03;;;27.63;;
19127;SDS011;9696;53.686;10.094;2023-04-09T02:39:35;82.27;;;27.50;;
19127;SDS011;9696;53.686;10.094;2023-04-09T02:42:04;85.53;;;26.77;;
19127;SDS011;9696;53.686;10.094;2023-04-09T02:44:34;78.67;;;25.90;;
19127;SDS011;9696;53.686;10.094;2023-04-09T02:47:05;104.47;;;31.10;;
19127;SDS011;9696;53.686;10.094;2023-04-09T02:49:36;110.20;;;35.10;;
19127;SDS011;9696;53.686;10.094;2023-04-09T02:52:05;106.33;;;32.83;;
19127;SDS011;9696;53.686;10.094;2023-04-09T02:54:36;93.20;;;29.10;;
19127;SDS011;9696;53.686;10.094;2023-04-09T02:57:05;92.43;;;31.00;;
19127;SDS011;9696;53.686;10.094;2023-04-09T02:59:34;95.90;;;30.23;;
19127;SDS011;9696;53.686;10.094;2023-04-09T03:02:06;105.50;;;32.50;;
19127;SDS011;9696;53.686;10.094;2023-04-09T03:04:35;106.97;;;29.23;;
19127;SDS011;9696;53.686;10.094;2023-04-09T03:07:04;86.17;;;28.20;;
19127;SDS011;9696;53.686;10.094;2023-04-09T03:09:33;100.13;;;28.23;;
19127;SDS011;9696;53.686;10.094;2023-04-09T03:12:03;113.20;;;32.77;;
19127;SDS011;9696;53.686;10.094;2023-04-09T03:14:32;85.97;;;29.23;;
19127;SDS011;9696;53.686;10.094;2023-04-09T03:17:01;83.10;;;27.00;;
19127;SDS011;9696;53.686;10.094;2023-04-09T03:19:32;80.43;;;26.13;;
19127;SDS011;9696;53.686;10.094;2023-04-09T03:22:01;83.57;;;26.23;;
19127;SDS011;9696;53.686;10.094;2023-04-09T03:24:30;75.60;;;24.60;;
19127;SDS011;9696;53.686;10.094;2023-04-09T03:27:03;77.60;;;25.40;;
19127;SDS011;9696;53.686;10.094;2023-04-09T03:29:32;74.30;;;24.43;;
19127;SDS011;9696;53.686;10.094;2023-04-09T03:32:02;91.93;;;25.57;;
19127;SDS011;9696;53.686;10.094;2023-04-09T03:34:33;95.10;;;27.17;;
19127;SDS011;9696;53.686;10.094;2023-04-09T03:37:02;72.47;;;23.97;;
19127;SDS011;9696;53.686;10.094;2023-04-09T03:39:31;77.40;;;25.73;;
19127;SDS011;9696;53.686;10.094;2023-04-09T03:42:01;73.87;;;25.73;;
19127;SDS011;9696;53.686;10.094;2023-04-09T03:44:40;89.87;;;27.53;;
19127;SDS011;9696;53.686;10.094;2023-04-09T03:47:13;83.87;;;27.30;;
19127;SDS011;9696;53.686;10.094;2023-04-09T03:49:43;94.27;;;27.37;;
19127;SDS011;9696;53.686;10.094;2023-04-09T03:52:18;91.47;;;26.70;;
19127;SDS011;9696;53.686;10.094;2023-04-09T03:54:56;77.80;;;24.97;;
19127;SDS011;9696;53.686;10.094;2023-04-09T03:57:27;82.17;;;25.33;;
19127;SDS011;9696;53.686;10.094;2023-04-09T03:59:56;91.93;;;26.93;;
19127;SDS011;9696;53.686;10.094;2023-04-09T04:02:26;90.73;;;25.87;;
19127;SDS011;9696;53.686;10.094;2023-04-09T04:05:04;89.93;;;26.23;;
19127;SDS011;9696;53.686;10.094;2023-04-09T04:07:42;72.73;;;22.17;;
19127;SDS011;9696;53.686;10.094;2023-04-09T04:10:15;88.63;;;25.90;;
19127;SDS011;9696;53.686;10.094;2023-04-09T04:12:46;81.80;;;23.23;;
19127;SDS011;9696;53.686;10.094;2023-04-09T04:15:21;77.87;;;25.53;;
19127;SDS011;9696;53.686;10.094;2023-04-09T04:17:54;75.10;;;21.93;;
19127;SDS011;9696;53.686;10.094;2023-04-09T04:20:36;67.77;;;22.97;;
19127;SDS011;9696;53.686;10.094;2023-04-09T04:23:09;79.00;;;23.77;;
19127;SDS011;9696;53.686;10.094;2023-04-09T04:25:54;72.43;;;22.07;;
19127;SDS011;9696;53.686;10.094;2023-04-09T04:28:34;70.10;;;21.27;;
19127;SDS011;9696;53.686;10.094;2023-04-09T04:31:06;80.27;;;24.33;;
19127;SDS011;9696;53.686;10.094;2023-04-09T04:33:38;64.57;;;20.53;;
19127;SDS011;9696;53.686;10.094;2023-04-09T04:36:13;66.77;;;19.80;;
19127;SDS011;9696;53.686;10.094;2023-04-09T04:38:48;68.77;;;20.37;;
19127;SDS011;9696;53.686;10.094;2023-04-09T04:41:26;86.53;;;22.17;;
19127;SDS011;9696;53.686;10.094;2023-04-09T04:44:07;88.03;;;21.27;;
19127;SDS011;9696;53.686;10.094;2023-04-09T04:46:36;62.70;;;19.87;;
19127;SDS011;9696;53.686;10.094;2023-04-09T04:49:05;62.33;;;19.83;;
19127;SDS011;9696;53.686;10.094;2023-04-09T04:51:42;65.60;;;19.90;;
19127;SDS011;9696;53.686;10.094;2023-04-09T04:54:14;71.87;;;20.03;;
19127;SDS011;9696;53.686;10.094;2023-04-09T04:56:52;59.40;;;19.27;;
19127;SDS011;9696;53.686;10.094;2023-04-09T04:59:38;66.63;;;19.10;;
19127;SDS011;9696;53.686;10.094;2023-04-09T05:02:10;62.13;;;19.27;;
19127;SDS011;9696;53.686;10.094;2023-04-09T05:04:52;62.17;;;19.23;;
19127;SDS011;9696;53.686;10.094;2023-04-09T05:07:30;61.70;;;19.93;;
19127;SDS011;9696;53.686;10.094;2023-04-09T05:10:01;68.50;;;20.33;;
19127;SDS011;9696;53.686;10.094;2023-04-09T05:12:36;60.63;;;18.30;;
19127;SDS011;9696;53.686;10.094;2023-04-09T05:15:06;59.57;;;19.43;;
19127;SDS011;9696;53.686;10.094;2023-04-09T05:17:37;76.07;;;20.60;;
19127;SDS011;9696;53.686;10.094;2023-04-09T05:20:10;58.40;;;17.87;;
19127;SDS011;9696;53.686;10.094;2023-04-09T05:22:51;61.27;;;20.07;;
19127;SDS011;9696;53.686;10.094;2023-04-09T05:25:27;60.77;;;19.73;;
19127;SDS011;9696;53.686;10.094;2023-04-09T05:27:57;59.57;;;19.30;;
19127;SDS011;9696;53.686;10.094;2023-04-09T05:30:26;70.10;;;19.73;;
19127;SDS011;9696;53.686;10.094;2023-04-09T05:32:58;64.80;;;19.73;;
19127;SDS011;9696;53.686;10.094;2023-04-09T05:35:28;74.00;;;21.37;;
19127;SDS011;9696;53.686;10.094;2023-04-09T05:37:59;81.10;;;20.27;;
19127;SDS011;9696;53.686;10.094;2023-04-09T05:40:29;68.50;;;21.00;;
19127;SDS011;9696;53.686;10.094;2023-04-09T05:42:59;62.97;;;20.67;;
19127;SDS011;9696;53.686;10.094;2023-04-09T05:45:37;58.53;;;20.43;;
19127;SDS011;9696;53.686;10.094;2023-04-09T05:48:06;58.37;;;18.83;;
19127;SDS011;9696;53.686;10.094;2023-04-09T05:50:37;56.67;;;18.93;;
19127;SDS011;9696;53.686;10.094;2023-04-09T05:53:23;60.60;;;19.93;;
19127;SDS011;9696;53.686;10.094;2023-04-09T05:55:52;49.47;;;17.97;;
19127;SDS011;9696;53.686;10.094;2023-04-09T05:58:26;56.63;;;18.30;;
19127;SDS011;9696;53.686;10.094;2023-04-09T06:00:57;50.27;;;18.97;;
19127;SDS011;9696;53.686;10.094;2023-04-09T06:03:26;51.70;;;18.80;;
19127;SDS011;9696;53.686;10.094;2023-04-09T06:05:55;54.73;;;17.40;;
19127;SDS011;9696;53.686;10.094;2023-04-09T06:08:26;50.53;;;19.17;;
19127;SDS011;9696;53.686;10.094;2023-04-09T06:10:55;42.97;;;17.90;;
19127;SDS011;9696;53.686;10.094;2023-04-09T06:13:25;49.20;;;17.80;;
19127;SDS011;9696;53.686;10.094;2023-04-09T06:15:54;55.60;;;18.93;;
19127;SDS011;9696;53.686;10.094;2023-04-09T06:18:23;47.77;;;18.47;;
19127;SDS011;9696;53.686;10.094;2023-04-09T06:20:59;50.17;;;17.43;;
19127;SDS011;9696;53.686;10.094;2023-04-09T06:23:31;54.83;;;18.70;;
19127;SDS011;9696;53.686;10.094;2023-04-09T06:26:01;48.50;;;18.97;;
19127;SDS011;9696;53.686;10.094;2023-04-09T06:28:30;47.03;;;17.37;;
19127;SDS011;9696;53.686;10.094;2023-04-09T06:30:59;51.90;;;18.40;;
19127;SDS011;9696;53.686;10.094;2023-04-09T06:33:29;55.23;;;18.90;;
19127;SDS011;9696;53.686;10.094;2023-04-09T06:35:59;61.13;;;19.40;;
19127;SDS011;9696;53.686;10.094;2023-04-09T06:38:36;49.40;;;16.90;;
19127;SDS011;9696;53.686;10.094;2023-04-09T06:41:07;47.53;;;17.17;;
19127;SDS011;9696;53.686;10.094;2023-04-09T06:43:39;57.80;;;19.13;;
19127;SDS011;9696;53.686;10.094;2023-04-09T06:46:10;54.17;;;17.60;;
19127;SDS011;9696;53.686;10.094;2023-04-09T06:48:43;45.33;;;18.40;;
19127;SDS011;9696;53.686;10.094;2023-04-09T06:51:12;60.40;;;18.90;;
19127;SDS011;9696;53.686;10.094;2023-04-09T06:53:43;64.57;;;18.07;;
19127;SDS011;9696;53.686;10.094;2023-04-09T06:56:15;47.77;;;17.77;;
19127;SDS011;9696;53.686;10.094;2023-04-09T06:58:44;54.90;;;19.33;;
19127;SDS011;9696;53.686;10.094;2023-04-09T07:01:13;49.73;;;19.13;;
19127;SDS011;9696;53.686;10.094;2023-04-09T07:03:43;48.40;;;18.53;;
19127;SDS011;9696;53.686;10.094;2023-04-09T07:06:13;56.13;;;17.97;;
19127;SDS011;9696;53.686;10.094;2023-04-09T07:08:43;44.70;;;17.57;;
19127;SDS011;9696;53.686;10.094;2023-04-09T07:11:13;38.60;;;15.37;;
19127;SDS011;9696;53.686;10.094;2023-04-09T07:13:42;63.67;;;18.93;;
19127;SDS011;9696;53.686;10.094;2023-04-09T07:16:11;51.53;;;17.83;;
19127;SDS011;9696;53.686;10.094;2023-04-09T07:18:41;62.87;;;20.03;;
19127;SDS011;9696;53.686;10.094;2023-04-09T07:21:10;56.50;;;19.20;;
19127;SDS011;9696;53.686;10.094;2023-04-09T07:23:40;48.47;;;19.00;;
19127;SDS011;9696;53.686;10.094;2023-04-09T07:26:11;45.93;;;17.73;;
19127;SDS011;9696;53.686;10.094;2023-04-09T07:28:40;54.53;;;18.80;;
19127;SDS011;9696;53.686;10.094;2023-04-09T07:31:09;47.17;;;18.13;;
19127;SDS011;9696;53.686;10.094;2023-04-09T07:33:38;42.83;;;18.37;;
19127;SDS011;9696;53.686;10.094;2023-04-09T07:36:08;45.93;;;16.40;;
19127;SDS011;9696;53.686;10.094;2023-04-09T07:38:37;51.83;;;18.90;;
19127;SDS011;9696;53.686;10.094;2023-04-09T07:41:06;49.57;;;18.03;;
19127;SDS011;9696;53.686;10.094;2023-04-09T07:43:39;44.07;;;16.90;;
19127;SDS011;9696;53.686;10.094;2023-04-09T07:46:09;42.60;;;17.73;;
19127;SDS011;9696;53.686;10.094;2023-04-09T07:48:38;54.17;;;16.70;;
19127;SDS011;9696;53.686;10.094;2023-04-09T07:51:07;48.07;;;16.90;;
19127;SDS011;9696;53.686;10.094;2023-04-09T07:53:37;43.13;;;17.30;;
19127;SDS011;9696;53.686;10.094;2023-04-09T07:56:06;44.90;;;17.30;;
19127;SDS011;9696;53.686;10.094;2023-04-09T07:58:37;44.13;;;15.90;;
19127;SDS011;9696;53.686;10.094;2023-04-09T08:01:06;44.10;;;17.53;;
19127;SDS011;9696;53.686;10.094;2023-04-09T08:03:35;43.87;;;17.40;;
19127;SDS011;9696;53.686;10.094;2023-04-09T08:06:04;51.23;;;19.73;;
19127;SDS011;9696;53.686;10.094;2023-04-09T08:08:34;72.73;;;20.27;;
19127;SDS011;9696;53.686;10.094;2023-04-09T08:11:03;47.20;;;18.30;;
19127;SDS011;9696;53.686;10.094;2023-04-09T08:13:33;40.90;;;15.87;;
19127;SDS011;9696;53.686;10.094;2023-04-09T08:16:03;41.67;;;17.20;;
19127;SDS011;9696;53.686;10.094;2023-04-09T08:18:33;39.50;;;15.40;;
19127;SDS011;9696;53.686;10.094;2023-04-09T08:21:03;40.60;;;16.53;;
19127;SDS011;9696;53.686;10.094;2023-04-09T08:23:32;37.37;;;16.20;;
19127;SDS011;9696;53.686;10.094;2023-04-09T08:26:01;31.77;;;14.77;;
19127;SDS011;9696;53.686;10.094;2023-04-09T08:28:31;36.67;;;15.20;;
19127;SDS011;9696;53.686;10.094;2023-04-09T08:31:00;34.30;;;14.47;;
19127;SDS011;9696;53.686;10.094;2023-04-09T08:33:30;33.30;;;13.97;;
19127;SDS011;9696;53.686;10.094;2023-04-09T08:36:00;41.57;;;16.43;;
19127;SDS011;9696;53.686;10.094;2023-04-09T08:38:29;32.87;;;15.17;;
19127;SDS011;9696;53.686;10.094;2023-04-09T08:40:58;35.83;;;15.37;;
19127;SDS011;9696;53.686;10.094;2023-04-09T08:43:27;33.03;;;15.10;;
19127;SDS011;9696;53.686;10.094;2023-04-09T08:46:19;43.87;;;15.57;;
19127;SDS011;9696;53.686;10.094;2023-04-09T08:48:50;35.60;;;15.37;;
19127;SDS011;9696;53.686;10.094;2023-04-09T08:51:20;40.67;;;16.57;;
19127;SDS011;9696;53.686;10.094;2023-04-09T08:53:51;35.37;;;15.67;;
19127;SDS011;9696;53.686;10.094;2023-04-09T08:56:24;32.43;;;15.17;;
19127;SDS011;9696;53.686;10.094;2023-04-09T08:58:53;40.40;;;17.00;;
19127;SDS011;9696;53.686;10.094;2023-04-09T09:01:24;38.87;;;15.73;;
19127;SDS011;9696;53.686;10.094;2023-04-09T09:03:57;37.23;;;16.00;;
19127;SDS011;9696;53.686;10.094;2023-04-09T09:06:30;36.00;;;14.90;;
19127;SDS011;9696;53.686;10.094;2023-04-09T09:09:02;32.37;;;14.33;;
19127;SDS011;9696;53.686;10.094;2023-04-09T09:11:33;40.33;;;16.50;;
19127;SDS011;9696;53.686;10.094;2023-04-09T09:14:04;35.97;;;16.50;;
19127;SDS011;9696;53.686;10.094;2023-04-09T09:16:35;40.57;;;17.10;;
19127;SDS011;9696;53.686;10.094;2023-04-09T09:19:08;41.10;;;15.73;;
19127;SDS011;9696;53.686;10.094;2023-04-09T09:21:37;41.00;;;17.07;;
19127;SDS011;9696;53.686;10.094;2023-04-09T09:24:15;38.37;;;16.33;;
19127;SDS011;9696;53.686;10.094;2023-04-09T09:26:44;38.47;;;16.57;;
19127;SDS011;9696;53.686;10.094;2023-04-09T09:29:13;40.90;;;16.17;;
19127;SDS011;9696;53.686;10.094;2023-04-09T09:31:46;38.07;;;16.83;;
19127;SDS011;9696;53.686;10.094;2023-04-09T09:34:18;37.93;;;16.60;;
19127;SDS011;9696;53.686;10.094;2023-04-09T09:36:48;43.83;;;18.77;;
19127;SDS011;9696;53.686;10.094;2023-04-09T09:39:17;37.80;;;17.33;;
19127;SDS011;9696;53.686;10.094;2023-04-09T09:41:47;39.07;;;16.23;;
19127;SDS011;9696;53.686;10.094;2023-04-09T09:44:35;36.17;;;16.57;;
19127;SDS011;9696;53.686;10.094;2023-04-09T09:47:04;39.03;;;15.57;;
19127;SDS011;9696;53.686;10.094;2023-04-09T09:49:36;38.10;;;16.03;;
19127;SDS011;9696;53.686;10.094;2023-04-09T09:52:06;35.83;;;15.60;;
19127;SDS011;9696;53.686;10.094;2023-04-09T09:54:39;37.90;;;15.90;;
19127;SDS011;9696;53.686;10.094;2023-04-09T09:57:09;44.53;;;18.93;;
19127;SDS011;9696;53.686;10.094;2023-04-09T09:59:45;42.30;;;18.47;;
19127;SDS011;9696;53.686;10.094;2023-04-09T10:02:19;38.20;;;17.30;;
19127;SDS011;9696;53.686;10.094;2023-04-09T10:04:54;36.63;;;16.27;;
19127;SDS011;9696;53.686;10.094;2023-04-09T10:07:27;35.33;;;14.60;;
19127;SDS011;9696;53.686;10.094;2023-04-09T10:09:57;36.57;;;15.80;;
19127;SDS011;9696;53.686;10.094;2023-04-09T10:12:29;36.93;;;15.30;;
19127;SDS011;9696;53.686;10.094;2023-04-09T10:14:59;43.53;;;15.90;;
19127;SDS011;9696;53.686;10.094;2023-04-09T10:17:31;37.37;;;15.53;;
19127;SDS011;9696;53.686;10.094;2023-04-09T10:20:06;33.43;;;15.37;;
19127;SDS011;9696;53.686;10.094;2023-04-09T10:22:39;32.20;;;15.07;;
19127;SDS011;9696;53.686;10.094;2023-04-09T10:25:13;40.27;;;15.77;;
19127;SDS011;9696;53.686;10.094;2023-04-09T10:27:43;39.73;;;15.67;;
19127;SDS011;9696;53.686;10.094;2023-04-09T10:33:09;33.77;;;14.73;;
19127;SDS011;9696;53.686;10.094;2023-04-09T10:35:41;36.27;;;14.97;;
19127;SDS011;9696;53.686;10.094;2023-04-09T10:38:13;32.80;;;14.33;;
19127;SDS011;9696;53.686;10.094;2023-04-09T10:40:46;37.53;;;15.37;;
19127;SDS011;9696;53.686;10.094;2023-04-09T10:43:17;37.97;;;15.83;;
19127;SDS011;9696;53.686;10.094;2023-04-09T10:45:47;38.13;;;15.50;;
19127;SDS011;9696;53.686;10.094;2023-04-09T10:48:19;43.87;;;14.93;;
19127;SDS011;9696;53.686;10.094;2023-04-09T10:50:50;36.07;;;14.70;;
19127;SDS011;9696;53.686;10.094;2023-04-09T10:53:20;36.47;;;14.23;;
19127;SDS011;9696;53.686;10.094;2023-04-09T10:55:51;33.80;;;14.33;;
19127;SDS011;9696;53.686;10.094;2023-04-09T10:58:20;32.37;;;13.47;;
19127;SDS011;9696;53.686;10.094;2023-04-09T11:00:50;36.93;;;13.87;;
19127;SDS011;9696;53.686;10.094;2023-04-09T11:03:24;31.50;;;14.03;;
19127;SDS011;9696;53.686;10.094;2023-04-09T11:05:58;33.83;;;14.63;;
19127;SDS011;9696;53.686;10.094;2023-04-09T11:08:29;34.20;;;14.73;;
19127;SDS011;9696;53.686;10.094;2023-04-09T11:10:59;38.37;;;14.50;;
19127;SDS011;9696;53.686;10.094;2023-04-09T11:13:29;34.00;;;15.07;;
19127;SDS011;9696;53.686;10.094;2023-04-09T11:16:00;37.70;;;14.97;;
19127;SDS011;9696;53.686;10.094;2023-04-09T11:18:33;34.50;;;14.90;;
19127;SDS011;9696;53.686;10.094;2023-04-09T11:21:04;33.77;;;15.20;;
19127;SDS011;9696;53.686;10.094;2023-04-09T11:23:35;35.97;;;15.20;;
19127;SDS011;9696;53.686;10.094;2023-04-09T11:26:05;35.87;;;14.27;;
19127;SDS011;9696;53.686;10.094;2023-04-09T11:28:37;36.67;;;15.00;;
19127;SDS011;9696;53.686;10.094;2023-04-09T11:31:10;37.80;;;16.83;;
19127;SDS011;9696;53.686;10.094;2023-04-09T11:33:39;34.73;;;15.57;;
19127;SDS011;9696;53.686;10.094;2023-04-09T11:36:09;37.10;;;14.90;;
19127;SDS011;9696;53.686;10.094;2023-04-09T11:38:38;34.53;;;14.77;;
19127;SDS011;9696;53.686;10.094;2023-04-09T11:41:08;31.13;;;14.13;;
19127;SDS011;9696;53.686;10.094;2023-04-09T11:43:39;39.40;;;14.83;;
19127;SDS011;9696;53.686;10.094;2023-04-09T11:46:08;37.37;;;15.53;;
19127;SDS011;9696;53.686;10.094;2023-04-09T11:48:37;38.07;;;14.90;;
19127;SDS011;9696;53.686;10.094;2023-04-09T11:51:07;35.43;;;13.60;;
19127;SDS011;9696;53.686;10.094;2023-04-09T11:53:37;33.67;;;14.23;;
19127;SDS011;9696;53.686;10.094;2023-04-09T11:56:07;34.37;;;15.07;;
19127;SDS011;9696;53.686;10.094;2023-04-09T11:58:37;34.53;;;14.57;;
19127;SDS011;9696;53.686;10.094;2023-04-09T12:01:13;38.03;;;14.77;;
19127;SDS011;9696;53.686;10.094;2023-04-09T12:03:42;37.23;;;14.20;;
19127;SDS011;9696;53.686;10.094;2023-04-09T12:06:12;35.50;;;13.87;;
19127;SDS011;9696;53.686;10.094;2023-04-09T12:08:43;31.87;;;13.77;;
19127;SDS011;9696;53.686;10.094;2023-04-09T12:11:13;35.53;;;13.80;;
19127;SDS011;9696;53.686;10.094;2023-04-09T12:13:44;34.23;;;14.53;;
19127;SDS011;9696;53.686;10.094;2023-04-09T12:16:14;34.50;;;14.00;;
19127;SDS011;9696;53.686;10.094;2023-04-09T12:18:47;36.73;;;15.17;;
19127;SDS011;9696;53.686;10.094;2023-04-09T12:21:23;31.67;;;14.63;;
19127;SDS011;9696;53.686;10.094;2023-04-09T12:23:54;32.60;;;12.77;;
19127;SDS011;9696;53.686;10.094;2023-04-09T12:26:23;34.60;;;15.00;;
19127;SDS011;9696;53.686;10.094;2023-04-09T12:28:52;29.27;;;12.70;;
19127;SDS011;9696;53.686;10.094;2023-04-09T12:31:22;35.33;;;13.80;;
19127;SDS011;9696;53.686;10.094;2023-04-09T12:33:51;32.90;;;13.13;;
19127;SDS011;9696;53.686;10.094;2023-04-09T12:36:20;34.03;;;13.65;;
19127;SDS011;9696;53.686;10.094;2023-04-09T12:38:50;29.98;;;13.13;;
19127;SDS011;9696;53.686;10.094;2023-04-09T12:41:22;32.20;;;14.27;;
19127;SDS011;9696;53.686;10.094;2023-04-09T12:43:52;33.10;;;14.85;;
19127;SDS011;9696;53.686;10.094;2023-04-09T12:46:22;28.10;;;13.20;;
19127;SDS011;9696;53.686;10.094;2023-04-09T12:48:53;27.23;;;12.95;;
19127;SDS011;9696;53.686;10.094;2023-04-09T12:51:24;29.60;;;13.02;;
19127;SDS011;9696;53.686;10.094;2023-04-09T12:53:54;31.75;;;12.80;;
19127;SDS011;9696;53.686;10.094;2023-04-09T12:56:26;32.55;;;14.27;;
19127;SDS011;9696;53.686;10.094;2023-04-09T12:58:57;29.25;;;12.82;;
19127;SDS011;9696;53.686;10.094;2023-04-09T13:01:28;29.15;;;12.95;;
19127;SDS011;9696;53.686;10.094;2023-04-09T13:03:58;26.88;;;12.90;;
19127;SDS011;9696;53.686;10.094;2023-04-09T13:06:29;26.30;;;13.05;;
19127;SDS011;9696;53.686;10.094;2023-04-09T13:09:00;27.77;;;12.35;;
19127;SDS011;9696;53.686;10.094;2023-04-09T13:11:32;26.55;;;11.95;;
19127;SDS011;9696;53.686;10.094;2023-04-09T13:14:02;26.55;;;11.73;;
19127;SDS011;9696;53.686;10.094;2023-04-09T13:16:32;28.40;;;13.07;;
19127;SDS011;9696;53.686;10.094;2023-04-09T13:19:03;26.77;;;12.75;;
19127;SDS011;9696;53.686;10.094;2023-04-09T13:21:34;29.15;;;13.85;;
19127;SDS011;9696;53.686;10.094;2023-04-09T13:24:04;46.70;;;14.10;;
19127;SDS011;9696;53.686;10.094;2023-04-09T13:26:36;27.40;;;14.15;;
19127;SDS011;9696;53.686;10.094;2023-04-09T13:29:06;26.10;;;12.82;;
19127;SDS011;9696;53.686;10.094;2023-04-09T13:31:36;25.10;;;12.27;;
19127;SDS011;9696;53.686;10.094;2023-04-09T13:34:06;26.10;;;14.02;;
19127;SDS011;9696;53.686;10.094;2023-04-09T13:36:37;32.67;;;14.88;;
19127;SDS011;9696;53.686;10.094;2023-04-09T13:39:07;28.25;;;12.65;;
19127;SDS011;9696;53.686;10.094;2023-04-09T13:41:39;29.10;;;12.18;;
19127;SDS011;9696;53.686;10.094;2023-04-09T13:44:09;22.85;;;12.05;;
19127;SDS011;9696;53.686;10.094;2023-04-09T13:46:40;25.88;;;11.55;;
19127;SDS011;9696;53.686;10.094;2023-04-09T13:49:10;24.58;;;11.85;;
19127;SDS011;9696;53.686;10.094;2023-04-09T13:51:39;23.70;;;12.57;;
19127;SDS011;9696;53.686;10.094;2023-04-09T13:54:08;27.65;;;12.88;;
19127;SDS011;9696;53.686;10.094;2023-04-09T13:56:39;23.95;;;11.82;;
19127;SDS011;9696;53.686;10.094;2023-04-09T13:59:08;23.70;;;11.65;;
19127;SDS011;9696;53.686;10.094;2023-04-09T14:01:37;29.27;;;13.23;;
19127;SDS011;9696;53.686;10.094;2023-04-09T14:04:07;29.08;;;13.00;;
19127;SDS011;9696;53.686;10.094;2023-04-09T14:06:36;23.90;;;12.02;;
19127;SDS011;9696;53.686;10.094;2023-04-09T14:09:05;28.23;;;12.85;;
19127;SDS011;9696;53.686;10.094;2023-04-09T14:11:35;29.83;;;13.10;;
19127;SDS011;9696;53.686;10.094;2023-04-09T14:14:07;29.50;;;11.80;;
19127;SDS011;9696;53.686;10.094;2023-04-09T14:16:37;26.67;;;12.30;;
19127;SDS011;9696;53.686;10.094;2023-04-09T14:19:08;26.92;;;12.05;;
19127;SDS011;9696;53.686;10.094;2023-04-09T14:21:37;23.67;;;11.98;;
19127;SDS011;9696;53.686;10.094;2023-04-09T14:24:08;28.70;;;12.82;;
19127;SDS011;9696;53.686;10.094;2023-04-09T14:26:39;26.30;;;11.70;;
19127;SDS011;9696;53.686;10.094;2023-04-09T14:29:10;24.40;;;11.52;;
19127;SDS011;9696;53.686;10.094;2023-04-09T14:31:40;27.05;;;12.30;;
19127;SDS011;9696;53.686;10.094;2023-04-09T14:34:10;31.40;;;11.35;;
19127;SDS011;9696;53.686;10.094;2023-04-09T14:36:40;22.27;;;11.98;;
19127;SDS011;9696;53.686;10.094;2023-04-09T14:39:10;23.30;;;11.10;;
19127;SDS011;9696;53.686;10.094;2023-04-09T14:41:40;24.55;;;12.02;;
19127;SDS011;9696;53.686;10.094;2023-04-09T14:44:11;30.65;;;12.05;;
19127;SDS011;9696;53.686;10.094;2023-04-09T14:46:41;23.92;;;11.52;;